createdAt,value
2023-02-14T00:00:54.006Z,103558.03
2023-02-14T00:03:20.601Z,103550.16
2023-02-14T00:05:47.176Z,103587.38
2023-02-14T00:08:13.774Z,103584.41
2023-02-14T00:10:40.317Z,103554.22
2023-02-14T00:13:06.890Z,103597.69
2023-02-14T00:15:33.508Z,103584.41
2023-02-14T00:18:00.101Z,103568.84
2023-02-14T00:20:28.070Z,103592.78
2023-02-14T00:22:55.144Z,103589.22
2023-02-14T00:25:21.917Z,103574.41
2023-02-14T00:27:48.499Z,103581.34
2023-02-14T00:30:15.525Z,103579.00
2023-02-14T00:32:42.933Z,103581.56
2023-02-14T00:35:10.227Z,103582.44
2023-02-14T00:37:36.961Z,103572.97
2023-02-14T00:40:05.287Z,103575.78
2023-02-14T00:42:31.882Z,103568.53
2023-02-14T00:44:58.531Z,103552.06
2023-02-14T00:47:25.228Z,103576.28
2023-02-14T00:49:51.886Z,103576.41
2023-02-14T00:52:18.593Z,103570.91
2023-02-14T00:54:45.234Z,103566.59
2023-02-14T00:57:11.857Z,103555.25
2023-02-14T00:59:38.455Z,103558.28
2023-02-14T01:02:05.196Z,103561.84
2023-02-14T01:04:31.933Z,103544.03
2023-02-14T01:06:58.492Z,103534.06
2023-02-14T01:09:25.058Z,103536.13
2023-02-14T01:11:51.836Z,103541.50
2023-02-14T01:14:18.391Z,103539.69
2023-02-14T01:16:45.188Z,103531.72
2023-02-14T01:19:11.943Z,103528.16
2023-02-14T01:21:38.589Z,103539.44
2023-02-14T01:24:07.374Z,103551.34
2023-02-14T01:26:35.286Z,103552.88
2023-02-14T01:29:02.907Z,103528.63
2023-02-14T01:31:33.069Z,103555.78
2023-02-14T01:34:00.698Z,103532.28
2023-02-14T01:36:30.502Z,103556.66
2023-02-14T01:38:59.836Z,103559.06
2023-02-14T01:41:29.190Z,103555.38
2023-02-14T01:44:04.177Z,103561.34
2023-02-14T01:46:32.126Z,103559.56
2023-02-14T01:49:13.716Z,103562.09
2023-02-14T01:51:45.213Z,103556.00
2023-02-14T01:54:12.430Z,103535.44
2023-02-14T01:56:43.179Z,103560.78
2023-02-14T01:59:15.909Z,103554.81
2023-02-14T02:01:42.803Z,103554.56
2023-02-14T02:04:16.184Z,103557.09
2023-02-14T02:06:48.777Z,103531.19
2023-02-14T02:09:20.328Z,103532.63
2023-02-14T02:11:46.960Z,103540.03
2023-02-14T02:14:21.789Z,103547.66
2023-02-14T02:17:19.173Z,103545.91
2023-02-14T02:20:04.516Z,103543.34
2023-02-14T02:22:40.430Z,103545.59
2023-02-14T02:25:12.811Z,103540.25
2023-02-14T02:28:03.466Z,103539.22
2023-02-14T02:30:49.034Z,103545.81
2023-02-14T02:33:37.638Z,103548.09
2023-02-14T02:36:04.207Z,103552.88
2023-02-14T02:38:45.053Z,103545.75
2023-02-14T02:41:30.334Z,103549.50
2023-02-14T02:44:12.340Z,103544.00
2023-02-14T02:46:52.685Z,103544.16
2023-02-14T02:49:46.952Z,103546.69
2023-02-14T02:52:56.624Z,103543.28
2023-02-14T02:55:51.087Z,103528.81
2023-02-14T02:58:20.484Z,103532.81
2023-02-14T03:00:51.012Z,103529.84
2023-02-14T03:03:38.309Z,103534.19
2023-02-14T03:06:05.037Z,103537.63
2023-02-14T03:08:31.594Z,103534.81
2023-02-14T03:10:59.320Z,103524.22
2023-02-14T03:13:51.670Z,103530.94
2023-02-14T03:16:27.325Z,103521.63
2023-02-14T03:19:36.327Z,103527.84
2023-02-14T03:22:27.060Z,103537.56
2023-02-14T03:25:11.608Z,103525.97
2023-02-14T03:28:04.142Z,103523.84
2023-02-14T03:30:56.717Z,103522.06
2023-02-14T03:33:32.173Z,103522.06
2023-02-14T03:36:06.756Z,103524.63
2023-02-14T03:38:42.212Z,103517.78
2023-02-14T03:41:14.433Z,103515.69
2023-02-14T03:43:50.026Z,103509.16
2023-02-14T03:46:22.794Z,103501.88
2023-02-14T03:48:51.739Z,103503.66
2023-02-14T03:51:20.650Z,103487.22
2023-02-14T03:53:53.404Z,103510.28
2023-02-14T03:56:32.469Z,103479.94
2023-02-14T03:59:06.203Z,103512.53
2023-02-14T04:01:51.556Z,103523.59
2023-02-14T04:04:19.210Z,103520.75
2023-02-14T04:06:45.806Z,103516.75
2023-02-14T04:09:12.795Z,103505.13
2023-02-14T04:11:39.531Z,103518.25
2023-02-14T04:14:06.564Z,103519.00
2023-02-14T04:16:55.545Z,103496.81
2023-02-14T04:19:24.918Z,103512.75
2023-02-14T04:21:52.502Z,103508.00
2023-02-14T04:24:19.894Z,103509.66
2023-02-14T04:27:10.108Z,103503.56
2023-02-14T04:29:46.759Z,103493.72
2023-02-14T04:32:16.667Z,103499.53
2023-02-14T04:34:43.761Z,103497.00
2023-02-14T04:37:10.491Z,103492.41
2023-02-14T04:39:37.452Z,103491.50
2023-02-14T04:42:05.309Z,103497.63
2023-02-14T04:44:33.926Z,103495.66
2023-02-14T04:47:01.648Z,103501.94
2023-02-14T04:49:28.217Z,103498.34
2023-02-14T04:51:54.828Z,103504.19
2023-02-14T04:54:21.468Z,103502.38
2023-02-14T04:56:48.175Z,103499.72
2023-02-14T04:59:14.903Z,103500.19
2023-02-14T05:01:42.208Z,103504.34
2023-02-14T05:04:09.326Z,103478.59
2023-02-14T05:06:36.030Z,103496.31
2023-02-14T05:09:03.455Z,103502.41
2023-02-14T05:11:30.317Z,103505.88
2023-02-14T05:13:57.021Z,103485.44
2023-02-14T05:16:24.358Z,103490.06
2023-02-14T05:18:51.119Z,103497.94
2023-02-14T05:21:17.693Z,103498.72
2023-02-14T05:23:44.546Z,103502.75
2023-02-14T05:26:11.194Z,103497.50
2023-02-14T05:28:37.745Z,103509.31
2023-02-14T05:31:04.672Z,103499.00
2023-02-14T05:33:31.298Z,103483.97
2023-02-14T05:36:02.808Z,103512.00
2023-02-14T05:38:30.277Z,103497.34
2023-02-14T05:40:56.995Z,103479.78
2023-02-14T05:43:23.700Z,103477.56
2023-02-14T05:45:50.441Z,103487.19
2023-02-14T05:48:17.126Z,103486.31
2023-02-14T05:50:45.246Z,103484.97
2023-02-14T05:53:12.651Z,103493.91
2023-02-14T05:55:39.452Z,103479.75
2023-02-14T05:58:06.317Z,103493.75
2023-02-14T06:00:33.177Z,103497.31
2023-02-14T06:03:00.269Z,103498.06
2023-02-14T06:05:27.204Z,103485.09
2023-02-14T06:07:53.729Z,103491.19
2023-02-14T06:10:22.158Z,103492.41
2023-02-14T06:12:49.990Z,103491.50
2023-02-14T06:15:17.070Z,103490.59
2023-02-14T06:17:44.013Z,103480.94
2023-02-14T06:20:11.706Z,103474.53
2023-02-14T06:22:39.257Z,103497.31
2023-02-14T06:25:06.565Z,103498.97
2023-02-14T06:27:33.554Z,103501.22
2023-02-14T06:30:00.383Z,103488.13
2023-02-14T06:32:27.047Z,103496.72
2023-02-14T06:34:53.573Z,103489.88
2023-02-14T06:37:20.262Z,103490.03
2023-02-14T06:39:47.064Z,103483.78
2023-02-14T06:42:13.944Z,103461.88
2023-02-14T06:44:40.619Z,103451.19
2023-02-14T06:47:08.512Z,103486.00
2023-02-14T06:49:35.406Z,103489.59
2023-02-14T06:52:02.461Z,103482.56
2023-02-14T06:54:29.199Z,103484.22
2023-02-14T06:56:55.729Z,103484.06
2023-02-14T06:59:22.703Z,103470.94
2023-02-14T07:01:49.247Z,103479.91
2023-02-14T07:04:16.066Z,103474.53
2023-02-14T07:06:42.622Z,103494.78
2023-02-14T07:09:09.203Z,103480.78
2023-02-14T07:11:35.817Z,103484.53
2023-02-14T07:14:02.375Z,103440.91
2023-02-14T07:16:29.036Z,103466.66
2023-02-14T07:18:55.631Z,103487.59
2023-02-14T07:21:22.189Z,103477.03
2023-02-14T07:23:50.089Z,103488.03
2023-02-14T07:26:18.224Z,103492.78
2023-02-14T07:28:45.888Z,103490.41
2023-02-14T07:31:12.887Z,103481.44
2023-02-14T07:33:39.508Z,103480.38
2023-02-14T07:36:08.064Z,103495.41
2023-02-14T07:38:35.488Z,103492.72
2023-02-14T07:41:02.620Z,103496.84
2023-02-14T07:43:29.293Z,103498.63
2023-02-14T07:45:58.711Z,103487.59
2023-02-14T07:48:25.323Z,103492.91
2023-02-14T07:50:51.845Z,103492.28
2023-02-14T07:53:18.588Z,103484.78
2023-02-14T07:55:49.692Z,103500.28
2023-02-14T07:58:16.435Z,103509.97
2023-02-14T08:00:43.188Z,103499.97
2023-02-14T08:03:09.786Z,103495.44
2023-02-14T08:05:36.327Z,103482.75
2023-02-14T08:08:02.855Z,103465.44
2023-02-14T08:10:29.465Z,103505.72
2023-02-14T08:12:58.860Z,103485.81
2023-02-14T08:15:52.688Z,103500.34
2023-02-14T08:18:21.416Z,103479.69
2023-02-14T08:20:51.304Z,103488.44
2023-02-14T08:23:19.753Z,103483.66
2023-02-14T08:25:48.148Z,103488.03
2023-02-14T08:28:15.175Z,103497.47
2023-02-14T08:30:43.265Z,103493.66
2023-02-14T08:33:09.937Z,103501.13
2023-02-14T08:35:36.830Z,103500.41
2023-02-14T08:38:04.289Z,103509.59
2023-02-14T08:40:31.265Z,103505.56
2023-02-14T08:42:57.850Z,103498.69
2023-02-14T08:45:24.464Z,103498.19
2023-02-14T08:47:51.081Z,103483.56
2023-02-14T08:50:18.775Z,103512.69
2023-02-14T08:52:45.764Z,103495.22
2023-02-14T08:55:13.620Z,103464.59
2023-02-14T08:57:40.823Z,103499.94
2023-02-14T09:00:08.572Z,103499.81
2023-02-14T09:02:35.380Z,103496.22
2023-02-14T09:05:01.925Z,103496.84
2023-02-14T09:07:28.558Z,103505.06
2023-02-14T09:09:55.269Z,103480.16
2023-02-14T09:12:21.957Z,103495.53
2023-02-14T09:14:48.688Z,103491.44
2023-02-14T09:17:16.364Z,103492.69
2023-02-14T09:19:43.247Z,103495.78
2023-02-14T09:22:11.558Z,103497.38
2023-02-14T09:24:39.554Z,103485.22
2023-02-14T09:27:06.612Z,103488.56
2023-02-14T09:29:33.767Z,103460.22
2023-02-14T09:32:01.805Z,103496.38
2023-02-14T09:34:48.177Z,103497.91
2023-02-14T09:37:15.307Z,103474.25
2023-02-14T09:39:41.911Z,103464.81
2023-02-14T09:42:36.459Z,103485.09
2023-02-14T09:45:05.581Z,103487.47
2023-02-14T09:47:55.389Z,103484.03
2023-02-14T09:50:31.641Z,103480.00
2023-02-14T09:53:03.240Z,103475.78
2023-02-14T09:55:40.516Z,103471.38
2023-02-14T09:58:22.940Z,103480.69
2023-02-14T10:01:00.608Z,103465.13
2023-02-14T10:03:33.452Z,103480.00
2023-02-14T10:06:18.605Z,103479.47
2023-02-14T10:09:22.397Z,103479.69
2023-02-14T10:11:50.452Z,103478.44
2023-02-14T10:14:30.918Z,103482.97
2023-02-14T10:17:13.832Z,103468.84
2023-02-14T10:20:07.209Z,103475.28
2023-02-14T10:22:46.304Z,103452.25
2023-02-14T10:25:31.578Z,103466.31
2023-02-14T10:28:01.403Z,103474.50
2023-02-14T10:30:35.616Z,103463.81
2023-02-14T10:33:22.845Z,103446.28
2023-02-14T10:35:52.442Z,103461.06
2023-02-14T10:38:34.932Z,103455.81
2023-02-14T10:41:25.837Z,103460.94
2023-02-14T10:44:30.719Z,103460.59
2023-02-14T10:47:43.615Z,103447.06
2023-02-14T10:50:10.127Z,103447.25
2023-02-14T10:52:50.665Z,103437.69
2023-02-14T10:55:34.466Z,103434.78
2023-02-14T10:58:04.311Z,103436.75
2023-02-14T11:00:38.661Z,103432.78
2023-02-14T11:03:08.653Z,103432.72
2023-02-14T11:05:39.490Z,103428.84
2023-02-14T11:08:27.360Z,103431.06
2023-02-14T11:11:21.904Z,103431.06
2023-02-14T11:13:48.790Z,103435.16
2023-02-14T11:16:37.179Z,103436.47
2023-02-14T11:19:15.686Z,103429.44
2023-02-14T11:21:44.782Z,103426.78
2023-02-14T11:24:35.067Z,103423.34
2023-02-14T11:27:04.459Z,103421.22
2023-02-14T11:29:36.243Z,103407.84
2023-02-14T11:32:13.624Z,103407.66
2023-02-14T11:35:03.968Z,103415.72
2023-02-14T11:37:34.519Z,103406.00
2023-02-14T11:40:02.321Z,103401.47
2023-02-14T11:42:41.448Z,103399.97
2023-02-14T11:45:34.174Z,103385.94
2023-02-14T11:48:06.450Z,103384.72
2023-02-14T11:50:33.009Z,103371.44
2023-02-14T11:53:00.047Z,103346.00
2023-02-14T11:55:29.982Z,103375.56
2023-02-14T11:57:57.841Z,103367.84
2023-02-14T12:00:27.110Z,103324.09
2023-02-14T12:02:55.712Z,103363.41
2023-02-14T12:05:32.154Z,103327.66
2023-02-14T12:08:02.321Z,103311.00
2023-02-14T12:10:32.543Z,103352.06
2023-02-14T12:13:10.573Z,103351.19
2023-02-14T12:15:55.381Z,103350.09
2023-02-14T12:18:42.515Z,103346.00
2023-02-14T12:21:28.796Z,103332.69
2023-02-14T12:24:24.302Z,103304.53
2023-02-14T12:27:27.832Z,103323.84
2023-02-14T12:30:13.672Z,103262.41
2023-02-14T12:32:49.150Z,103262.69
2023-02-14T12:35:40.992Z,103305.97
2023-02-14T12:38:19.685Z,103311.25
2023-02-14T12:41:01.310Z,103310.94
2023-02-14T12:43:51.447Z,103314.25
2023-02-14T12:46:37.095Z,103310.34
2023-02-14T12:49:03.690Z,103300.75
2023-02-14T12:51:34.990Z,103260.69
2023-02-14T12:54:27.017Z,103243.88
2023-02-14T12:56:56.794Z,103288.44
2023-02-14T12:59:50.957Z,103264.25
2023-02-14T13:02:41.810Z,103290.13
2023-02-14T13:05:30.715Z,103260.91
2023-02-14T13:08:42.333Z,103256.13
2023-02-14T13:11:29.174Z,103269.84
2023-02-14T13:14:13.555Z,103256.44
2023-02-14T13:16:54.747Z,103225.84
2023-02-14T13:19:41.606Z,103261.59
2023-02-14T13:22:16.430Z,103258.91
2023-02-14T13:24:46.277Z,103253.59
2023-02-14T13:27:22.193Z,103260.69
2023-02-14T13:29:56.326Z,103240.72
2023-02-14T13:32:28.684Z,103215.38
2023-02-14T13:34:56.778Z,103238.03
2023-02-14T13:37:27.479Z,103244.31
2023-02-14T13:40:25.592Z,103238.50
2023-02-14T13:42:55.556Z,103241.38
2023-02-14T13:45:40.003Z,103235.00
2023-02-14T13:48:20.591Z,103238.53
2023-02-14T13:50:58.575Z,103226.03
2023-02-14T13:53:33.319Z,103211.75
2023-02-14T13:56:00.800Z,103217.19
2023-02-14T13:58:27.848Z,103215.34
2023-02-14T14:00:56.050Z,103213.16
2023-02-14T14:03:28.942Z,103216.69
2023-02-14T14:06:05.783Z,103217.56
2023-02-14T14:08:32.468Z,103220.28
2023-02-14T14:11:02.060Z,103202.84
2023-02-14T14:13:40.925Z,103224.59
2023-02-14T14:16:29.066Z,103220.97
2023-02-14T14:19:00.590Z,103201.97
2023-02-14T14:21:43.074Z,103189.16
2023-02-14T14:24:28.184Z,103201.81
2023-02-14T14:27:06.740Z,103220.56
2023-02-14T14:29:46.092Z,103208.41
2023-02-14T14:32:19.438Z,103203.50
2023-02-14T14:34:53.742Z,103192.50
2023-02-14T14:37:28.737Z,103196.38
2023-02-14T14:40:01.526Z,103207.06
2023-02-14T14:42:32.285Z,103200.78
2023-02-14T14:45:02.766Z,103202.13
2023-02-14T14:47:37.931Z,103191.81
2023-02-14T14:50:10.258Z,103189.28
2023-02-14T14:52:43.848Z,103200.50
2023-02-14T14:55:23.059Z,103187.41
2023-02-14T14:57:58.131Z,103198.00
2023-02-14T15:00:27.240Z,103201.38
2023-02-14T15:03:12.298Z,103200.34
2023-02-14T15:05:51.155Z,103194.41
2023-02-14T15:08:32.812Z,103200.13
2023-02-14T15:11:36.700Z,103196.53
2023-02-14T15:14:06.512Z,103196.63
2023-02-14T15:16:42.014Z,103197.69
2023-02-14T15:19:12.430Z,103163.06
2023-02-14T15:21:44.508Z,103188.81
2023-02-14T15:24:14.653Z,103174.09
2023-02-14T15:26:43.834Z,103195.00
2023-02-14T15:29:30.415Z,103199.94
2023-02-14T15:32:00.460Z,103190.66
2023-02-14T15:34:33.030Z,103162.16
2023-02-14T15:37:06.182Z,103162.03
2023-02-14T15:39:37.987Z,103186.53
2023-02-14T15:42:06.057Z,103165.47
2023-02-14T15:44:32.822Z,103163.78
2023-02-14T15:47:03.664Z,103164.66
2023-02-14T15:49:35.634Z,103175.56
2023-02-14T15:52:05.010Z,103162.97
2023-02-14T15:54:31.903Z,103178.19
2023-02-14T15:56:59.098Z,103139.84
2023-02-14T15:59:31.023Z,103163.88
2023-02-14T16:02:01.874Z,103120.88
2023-02-14T16:04:32.558Z,103127.88
2023-02-14T16:07:20.711Z,103171.84
2023-02-14T16:09:48.349Z,103134.09
2023-02-14T16:12:36.301Z,103146.75
2023-02-14T16:15:15.075Z,103169.34
2023-02-14T16:17:44.064Z,103161.69
2023-02-14T16:20:39.964Z,103175.13
2023-02-14T16:23:15.925Z,103175.75
2023-02-14T16:25:42.465Z,103181.38
2023-02-14T16:28:09.334Z,103160.03
2023-02-14T16:30:37.990Z,103175.38
2023-02-14T16:33:07.266Z,103132.47
2023-02-14T16:35:34.005Z,103148.97
2023-02-14T16:38:00.678Z,103167.72
2023-02-14T16:40:28.734Z,103165.53
2023-02-14T16:42:55.426Z,103144.56
2023-02-14T16:45:24.077Z,103160.66
2023-02-14T16:47:50.773Z,103161.94
2023-02-14T16:50:19.328Z,103132.28
2023-02-14T16:52:50.886Z,103152.97
2023-02-14T16:55:20.119Z,103151.34
2023-02-14T16:57:53.164Z,103144.53
2023-02-14T17:00:20.102Z,103174.78
2023-02-14T17:02:46.784Z,103181.41
2023-02-14T17:05:13.603Z,103155.91
2023-02-14T17:07:43.774Z,103194.19
2023-02-14T17:10:17.597Z,103185.72
2023-02-14T17:12:47.547Z,103191.25
2023-02-14T17:15:18.122Z,103198.66
2023-02-14T17:17:47.237Z,103192.78
2023-02-14T17:20:14.808Z,103151.72
2023-02-14T17:22:44.621Z,103185.00
2023-02-14T17:25:11.466Z,103190.53
2023-02-14T17:27:38.545Z,103192.94
2023-02-14T17:30:05.747Z,103196.56
2023-02-14T17:32:32.289Z,103198.06
2023-02-14T17:34:58.904Z,103195.56
2023-02-14T17:37:25.618Z,103193.59
2023-02-14T17:39:53.271Z,103194.22
2023-02-14T17:42:19.912Z,103188.47
2023-02-14T17:44:46.466Z,103184.72
2023-02-14T17:47:14.827Z,103165.44
2023-02-14T17:49:47.617Z,103139.41
2023-02-14T17:52:17.550Z,103172.13
2023-02-14T17:54:47.329Z,103168.16
2023-02-14T17:57:14.926Z,103170.22
2023-02-14T17:59:47.098Z,103200.31
2023-02-14T18:02:28.825Z,103181.38
2023-02-14T18:04:55.598Z,103197.81
2023-02-14T18:07:26.198Z,103147.97
2023-02-14T18:09:52.771Z,103202.53
2023-02-14T18:12:19.334Z,103182.81
2023-02-14T18:14:45.992Z,103170.09
2023-02-14T18:17:13.720Z,103148.50
2023-02-14T18:19:40.560Z,103183.88
2023-02-14T18:22:07.213Z,103192.09
2023-02-14T18:24:33.794Z,103189.00
2023-02-14T18:27:00.348Z,103176.78
2023-02-14T18:29:26.960Z,103172.28
2023-02-14T18:31:53.751Z,103182.59
2023-02-14T18:34:20.429Z,103132.50
2023-02-14T18:36:49.383Z,103120.06
2023-02-14T18:39:21.645Z,103152.09
2023-02-14T18:42:01.489Z,103168.44
2023-02-14T18:44:34.387Z,103109.69
2023-02-14T18:47:04.928Z,103139.41
2023-02-14T18:49:41.916Z,103120.47
2023-02-14T18:52:20.467Z,103102.50
2023-02-14T18:57:45.562Z,103113.28
2023-02-14T19:00:12.933Z,103169.06
2023-02-14T19:02:39.540Z,103159.09
2023-02-14T19:05:07.945Z,103158.75
2023-02-14T19:07:35.708Z,103157.44
2023-02-14T19:10:04.038Z,103156.09
2023-02-14T19:12:33.253Z,103158.44
2023-02-14T19:15:01.471Z,103163.44
2023-02-14T19:17:28.115Z,103168.41
2023-02-14T19:19:55.378Z,103164.88
2023-02-14T19:22:22.651Z,103159.97
2023-02-14T19:29:22.641Z,103113.75
2023-02-14T19:31:54.807Z,103117.19
2023-02-14T19:34:29.305Z,103098.41
2023-02-14T19:38:41.890Z,103137.59
2023-02-14T19:39:53.877Z,103098.22
2023-02-14T19:42:34.789Z,103096.34
2023-02-14T19:48:25.212Z,103097.88
2023-02-14T19:50:58.149Z,103122.81
2023-02-14T19:53:27.703Z,103114.84
2023-02-14T19:55:54.350Z,103131.91
2023-02-14T19:58:28.379Z,103116.13
2023-02-14T20:00:59.976Z,103127.47
2023-02-14T20:03:27.092Z,103142.31
2023-02-14T20:05:53.687Z,103133.09
2023-02-14T20:08:20.328Z,103147.72
2023-02-14T20:10:51.247Z,103095.72
2023-02-14T20:13:17.800Z,103131.22
2023-02-14T20:15:45.636Z,103121.22
2023-02-14T20:18:12.377Z,103129.66
2023-02-14T20:21:03.154Z,103126.84
2023-02-14T20:23:32.278Z,103131.94
2023-02-14T20:25:58.815Z,103123.41
2023-02-14T20:28:25.380Z,103127.69
2023-02-14T20:30:54.299Z,103125.81
2023-02-14T20:33:20.997Z,103116.94
2023-02-14T20:35:47.549Z,103119.38
2023-02-14T20:38:14.135Z,103112.13
2023-02-14T20:40:42.752Z,103118.25
2023-02-14T20:43:12.444Z,103120.56
2023-02-14T20:45:41.698Z,103090.50
2023-02-14T20:48:08.545Z,103104.13
2023-02-14T20:50:35.527Z,103091.69
2023-02-14T20:53:02.105Z,103104.66
2023-02-14T20:55:31.069Z,103108.84
2023-02-14T20:58:02.379Z,103095.91
2023-02-14T21:00:30.068Z,103119.03
2023-02-14T21:02:57.357Z,103079.97
2023-02-14T21:05:26.176Z,103081.75
2023-02-14T21:07:52.716Z,103113.47
2023-02-14T21:10:19.294Z,103068.84
2023-02-14T21:12:46.008Z,103098.94
2023-02-14T21:15:12.692Z,103098.81
2023-02-14T21:17:39.521Z,103103.00
2023-02-14T21:20:09.799Z,103100.00
2023-02-14T21:22:37.631Z,103097.44
2023-02-14T21:25:05.794Z,103065.00
2023-02-14T21:27:32.392Z,103068.44
2023-02-14T21:29:59.007Z,103096.06
2023-02-14T21:32:28.400Z,103067.69
2023-02-14T21:34:58.296Z,103081.84
2023-02-14T21:37:25.051Z,103054.84
2023-02-14T21:39:51.717Z,103062.63
2023-02-14T21:42:18.748Z,103087.72
2023-02-14T21:45:05.601Z,103081.00
2023-02-14T21:47:37.030Z,103089.78
2023-02-14T21:50:24.082Z,103079.13
2023-02-14T21:52:53.146Z,103054.00
2023-02-14T21:55:20.931Z,103054.00
2023-02-14T21:57:47.470Z,103040.59
2023-02-14T22:00:14.297Z,103073.59
2023-02-14T22:02:41.146Z,103043.25
2023-02-14T22:05:08.164Z,103067.75
2023-02-14T22:07:35.137Z,103064.19
2023-02-14T22:10:02.618Z,103073.84
2023-02-14T22:12:29.800Z,103079.56
2023-02-14T22:15:00.211Z,103069.94
2023-02-14T22:17:27.530Z,103069.69
2023-02-14T22:19:54.903Z,103070.34
2023-02-14T22:22:21.521Z,103062.00
2023-02-14T22:24:48.510Z,103057.78
2023-02-14T22:27:16.228Z,103055.25
2023-02-14T22:29:42.932Z,103048.66
2023-02-14T22:32:09.776Z,103043.56
2023-02-14T22:34:36.527Z,103048.78
2023-02-14T22:37:03.295Z,103055.75
2023-02-14T22:39:29.977Z,103027.34
2023-02-14T22:41:56.600Z,102995.28
2023-02-14T22:44:32.018Z,102978.28
2023-02-14T22:47:04.503Z,103025.97
2023-02-14T22:49:31.397Z,103040.16
2023-02-14T22:51:58.037Z,103052.00
2023-02-14T22:54:24.622Z,103012.91
2023-02-14T22:57:02.406Z,102991.63
2023-02-14T22:59:40.278Z,103056.06
2023-02-14T23:02:07.297Z,103049.59
2023-02-14T23:04:35.884Z,103026.13
2023-02-14T23:07:05.577Z,103018.78
2023-02-14T23:09:36.733Z,102993.81
2023-02-14T23:12:03.626Z,103016.53
2023-02-14T23:14:48.857Z,103061.19
2023-02-14T23:17:16.149Z,103054.34
2023-02-14T23:20:01.772Z,103061.19
2023-02-14T23:22:31.350Z,103057.91
2023-02-14T23:25:00.483Z,103055.88
2023-02-14T23:27:38.987Z,103053.19
2023-02-14T23:30:07.634Z,103061.97
2023-02-14T23:32:34.469Z,103054.22
2023-02-14T23:35:01.003Z,103043.56
2023-02-14T23:37:27.780Z,103054.97
2023-02-14T23:39:54.477Z,103032.13
2023-02-14T23:42:21.042Z,103030.75
2023-02-14T23:44:47.778Z,103050.44
2023-02-14T23:47:14.947Z,103045.72
2023-02-14T23:49:41.993Z,103040.25
2023-02-14T23:52:11.220Z,103032.50
2023-02-14T23:54:38.296Z,103004.25
2023-02-14T23:57:06.170Z,103034.94
2023-02-14T23:59:32.758Z,103035.84
